sensor_id;sensor_type;location;lat;lon;timestamp;temperature;humidity
69677;DHT22;56914;51.058;9.326;2022-12-07T00:00:29;8.80;64.00
69677;DHT22;56914;51.058;9.326;2022-12-07T00:01:34;8.80;64.10
69677;DHT22;56914;51.058;9.326;2022-12-07T00:02:37;8.80;64.10
69677;DHT22;56914;51.058;9.326;2022-12-07T00:03:42;8.90;64.10
69677;DHT22;56914;51.058;9.326;2022-12-07T00:04:45;8.90;64.10
69677;DHT22;56914;51.058;9.326;2022-12-07T00:05:47;8.80;64.10
69677;DHT22;56914;51.058;9.326;2022-12-07T00:06:52;8.90;64.10
69677;DHT22;56914;51.058;9.326;2022-12-07T00:07:56;8.90;64.10
69677;DHT22;56914;51.058;9.326;2022-12-07T00:08:59;8.90;64.10
69677;DHT22;56914;51.058;9.326;2022-12-07T00:10:03;8.90;64.10
69677;DHT22;56914;51.058;9.326;2022-12-07T00:11:07;8.90;64.10
69677;DHT22;56914;51.058;9.326;2022-12-07T00:12:10;8.90;64.30
69677;DHT22;56914;51.058;9.326;2022-12-07T00:13:12;8.90;64.30
69677;DHT22;56914;51.058;9.326;2022-12-07T00:14:17;8.90;64.30
69677;DHT22;56914;51.058;9.326;2022-12-07T00:15:20;8.90;64.30
69677;DHT22;56914;51.058;9.326;2022-12-07T00:16:25;8.90;64.30
69677;DHT22;56914;51.058;9.326;2022-12-07T00:17:29;8.90;64.30
69677;DHT22;56914;51.058;9.326;2022-12-07T00:18:31;8.90;64.20
69677;DHT22;56914;51.058;9.326;2022-12-07T00:19:34;8.90;64.20
69677;DHT22;56914;51.058;9.326;2022-12-07T00:20:38;8.90;64.20
69677;DHT22;56914;51.058;9.326;2022-12-07T00:21:40;8.90;64.20
69677;DHT22;56914;51.058;9.326;2022-12-07T00:22:44;8.90;64.20
69677;DHT22;56914;51.058;9.326;2022-12-07T00:23:49;8.90;64.40
69677;DHT22;56914;51.058;9.326;2022-12-07T00:24:52;8.90;64.30
69677;DHT22;56914;51.058;9.326;2022-12-07T00:25:54;8.90;64.40
69677;DHT22;56914;51.058;9.326;2022-12-07T00:26:57;8.90;64.50
69677;DHT22;56914;51.058;9.326;2022-12-07T00:28:00;8.90;64.50
69677;DHT22;56914;51.058;9.326;2022-12-07T00:29:05;8.80;64.70
69677;DHT22;56914;51.058;9.326;2022-12-07T00:30:09;8.80;64.70
69677;DHT22;56914;51.058;9.326;2022-12-07T00:31:13;8.80;64.70
69677;DHT22;56914;51.058;9.326;2022-12-07T00:32:16;8.80;64.80
69677;DHT22;56914;51.058;9.326;2022-12-07T00:33:18;8.80;64.80
69677;DHT22;56914;51.058;9.326;2022-12-07T00:34:22;8.80;64.90
69677;DHT22;56914;51.058;9.326;2022-12-07T00:35:25;8.70;64.90
69677;DHT22;56914;51.058;9.326;2022-12-07T00:36:27;8.70;65.00
69677;DHT22;56914;51.058;9.326;2022-12-07T00:37:31;8.70;65.10
69677;DHT22;56914;51.058;9.326;2022-12-07T00:38:35;8.70;65.10
69677;DHT22;56914;51.058;9.326;2022-12-07T00:39:40;8.70;65.30
69677;DHT22;56914;51.058;9.326;2022-12-07T00:40:42;8.70;65.30
69677;DHT22;56914;51.058;9.326;2022-12-07T00:41:45;8.70;65.40
69677;DHT22;56914;51.058;9.326;2022-12-07T00:42:47;8.70;65.40
69677;DHT22;56914;51.058;9.326;2022-12-07T00:43:51;8.70;65.40
69677;DHT22;56914;51.058;9.326;2022-12-07T00:44:53;8.70;65.50
69677;DHT22;56914;51.058;9.326;2022-12-07T00:45:56;8.70;65.50
69677;DHT22;56914;51.058;9.326;2022-12-07T00:46:59;8.60;65.50
69677;DHT22;56914;51.058;9.326;2022-12-07T00:48:02;8.60;65.60
69677;DHT22;56914;51.058;9.326;2022-12-07T00:49:04;8.60;65.80
69677;DHT22;56914;51.058;9.326;2022-12-07T00:50:08;8.50;65.90
69677;DHT22;56914;51.058;9.326;2022-12-07T00:51:12;8.50;66.00
69677;DHT22;56914;51.058;9.326;2022-12-07T00:52:16;8.50;66.00
69677;DHT22;56914;51.058;9.326;2022-12-07T00:53:19;8.50;66.10
69677;DHT22;56914;51.058;9.326;2022-12-07T00:54:21;8.50;66.20
69677;DHT22;56914;51.058;9.326;2022-12-07T00:55:25;8.40;66.30
69677;DHT22;56914;51.058;9.326;2022-12-07T00:56:28;8.50;66.40
69677;DHT22;56914;51.058;9.326;2022-12-07T00:57:32;8.40;66.40
69677;DHT22;56914;51.058;9.326;2022-12-07T00:58:34;8.40;66.50
69677;DHT22;56914;51.058;9.326;2022-12-07T00:59:37;8.50;66.60
69677;DHT22;56914;51.058;9.326;2022-12-07T01:00:42;8.50;66.50
69677;DHT22;56914;51.058;9.326;2022-12-07T01:01:44;8.50;66.50
69677;DHT22;56914;51.058;9.326;2022-12-07T01:02:47;8.50;66.60
69677;DHT22;56914;51.058;9.326;2022-12-07T01:03:50;8.50;66.60
69677;DHT22;56914;51.058;9.326;2022-12-07T01:04:53;8.50;66.60
69677;DHT22;56914;51.058;9.326;2022-12-07T01:05:56;8.50;66.60
69677;DHT22;56914;51.058;9.326;2022-12-07T01:06:59;8.50;66.50
69677;DHT22;56914;51.058;9.326;2022-12-07T01:08:02;8.50;66.40
69677;DHT22;56914;51.058;9.326;2022-12-07T01:09:05;8.50;66.50
69677;DHT22;56914;51.058;9.326;2022-12-07T01:10:09;8.50;66.60
69677;DHT22;56914;51.058;9.326;2022-12-07T01:11:14;8.50;66.70
69677;DHT22;56914;51.058;9.326;2022-12-07T01:12:18;8.50;66.70
69677;DHT22;56914;51.058;9.326;2022-12-07T01:13:20;8.50;67.00
69677;DHT22;56914;51.058;9.326;2022-12-07T01:14:23;8.50;66.70
69677;DHT22;56914;51.058;9.326;2022-12-07T01:15:26;8.50;66.70
69677;DHT22;56914;51.058;9.326;2022-12-07T01:16:31;8.50;66.60
69677;DHT22;56914;51.058;9.326;2022-12-07T01:17:34;8.50;66.60
69677;DHT22;56914;51.058;9.326;2022-12-07T01:18:37;8.50;66.50
69677;DHT22;56914;51.058;9.326;2022-12-07T01:19:39;8.60;66.60
69677;DHT22;56914;51.058;9.326;2022-12-07T01:20:42;8.60;66.50
69677;DHT22;56914;51.058;9.326;2022-12-07T01:21:45;8.60;66.40
69677;DHT22;56914;51.058;9.326;2022-12-07T01:22:48;8.60;66.90
69677;DHT22;56914;51.058;9.326;2022-12-07T01:23:51;8.60;66.50
69677;DHT22;56914;51.058;9.326;2022-12-07T01:24:54;8.60;66.50
69677;DHT22;56914;51.058;9.326;2022-12-07T01:25:57;8.60;66.40
69677;DHT22;56914;51.058;9.326;2022-12-07T01:27:02;8.60;66.40
69677;DHT22;56914;51.058;9.326;2022-12-07T01:28:04;8.60;66.50
69677;DHT22;56914;51.058;9.326;2022-12-07T01:29:07;8.60;66.50
69677;DHT22;56914;51.058;9.326;2022-12-07T01:30:11;8.60;66.50
69677;DHT22;56914;51.058;9.326;2022-12-07T01:31:17;8.60;66.60
69677;DHT22;56914;51.058;9.326;2022-12-07T01:32:19;8.60;66.50
69677;DHT22;56914;51.058;9.326;2022-12-07T01:33:22;8.60;66.50
69677;DHT22;56914;51.058;9.326;2022-12-07T01:34:25;8.70;66.50
69677;DHT22;56914;51.058;9.326;2022-12-07T01:35:28;8.70;66.30
69677;DHT22;56914;51.058;9.326;2022-12-07T01:36:32;8.70;66.30
69677;DHT22;56914;51.058;9.326;2022-12-07T01:37:37;8.70;66.30
69677;DHT22;56914;51.058;9.326;2022-12-07T01:38:39;8.70;66.30
69677;DHT22;56914;51.058;9.326;2022-12-07T01:39:43;8.80;66.30
69677;DHT22;56914;51.058;9.326;2022-12-07T01:40:45;8.80;66.30
69677;DHT22;56914;51.058;9.326;2022-12-07T01:41:48;8.70;66.20
69677;DHT22;56914;51.058;9.326;2022-12-07T01:42:51;8.70;66.30
69677;DHT22;56914;51.058;9.326;2022-12-07T01:44:19;8.70;66.30
69677;DHT22;56914;51.058;9.326;2022-12-07T01:45:44;8.70;66.30
69677;DHT22;56914;51.058;9.326;2022-12-07T01:46:48;8.70;66.40
69677;DHT22;56914;51.058;9.326;2022-12-07T01:47:55;8.80;66.40
69677;DHT22;56914;51.058;9.326;2022-12-07T01:48:59;8.70;66.30
69677;DHT22;56914;51.058;9.326;2022-12-07T01:50:03;8.80;66.40
69677;DHT22;56914;51.058;9.326;2022-12-07T01:51:10;8.70;66.50
69677;DHT22;56914;51.058;9.326;2022-12-07T01:52:20;8.70;66.50
69677;DHT22;56914;51.058;9.326;2022-12-07T01:53:28;8.70;66.50
69677;DHT22;56914;51.058;9.326;2022-12-07T01:54:33;8.70;66.70
69677;DHT22;56914;51.058;9.326;2022-12-07T01:55:41;8.70;66.70
69677;DHT22;56914;51.058;9.326;2022-12-07T01:56:50;8.70;66.60
69677;DHT22;56914;51.058;9.326;2022-12-07T01:57:55;8.70;66.70
69677;DHT22;56914;51.058;9.326;2022-12-07T01:59:01;8.80;66.70
69677;DHT22;56914;51.058;9.326;2022-12-07T02:00:05;8.70;66.60
69677;DHT22;56914;51.058;9.326;2022-12-07T02:01:09;8.80;66.60
69677;DHT22;56914;51.058;9.326;2022-12-07T02:02:18;8.80;66.70
69677;DHT22;56914;51.058;9.326;2022-12-07T02:03:27;8.80;66.70
69677;DHT22;56914;51.058;9.326;2022-12-07T02:04:32;8.80;66.60
69677;DHT22;56914;51.058;9.326;2022-12-07T02:05:37;8.80;66.60
69677;DHT22;56914;51.058;9.326;2022-12-07T02:06:42;8.80;66.60
69677;DHT22;56914;51.058;9.326;2022-12-07T02:07:48;8.80;66.50
69677;DHT22;56914;51.058;9.326;2022-12-07T02:08:52;8.80;66.60
69677;DHT22;56914;51.058;9.326;2022-12-07T02:09:56;8.80;66.60
69677;DHT22;56914;51.058;9.326;2022-12-07T02:10:59;8.90;66.50
69677;DHT22;56914;51.058;9.326;2022-12-07T02:12:04;8.90;66.50
69677;DHT22;56914;51.058;9.326;2022-12-07T02:13:12;8.90;66.40
69677;DHT22;56914;51.058;9.326;2022-12-07T02:14:16;8.80;66.50
69677;DHT22;56914;51.058;9.326;2022-12-07T02:15:22;8.80;66.60
69677;DHT22;56914;51.058;9.326;2022-12-07T02:16:35;8.80;66.60
69677;DHT22;56914;51.058;9.326;2022-12-07T02:17:51;8.80;66.70
69677;DHT22;56914;51.058;9.326;2022-12-07T02:19:16;8.80;66.90
69677;DHT22;56914;51.058;9.326;2022-12-07T02:20:30;8.80;66.80
69677;DHT22;56914;51.058;9.326;2022-12-07T02:21:43;8.90;66.80
69677;DHT22;56914;51.058;9.326;2022-12-07T02:23:12;8.90;66.70
69677;DHT22;56914;51.058;9.326;2022-12-07T02:24:44;8.90;66.60
69677;DHT22;56914;51.058;9.326;2022-12-07T02:26:10;8.90;66.60
69677;DHT22;56914;51.058;9.326;2022-12-07T02:27:44;9.00;66.50
69677;DHT22;56914;51.058;9.326;2022-12-07T02:29:08;8.90;66.40
69677;DHT22;56914;51.058;9.326;2022-12-07T02:30:13;9.00;66.30
69677;DHT22;56914;51.058;9.326;2022-12-07T02:31:21;9.00;66.20
69677;DHT22;56914;51.058;9.326;2022-12-07T02:32:30;9.00;66.30
69677;DHT22;56914;51.058;9.326;2022-12-07T02:33:44;9.00;66.40
69677;DHT22;56914;51.058;9.326;2022-12-07T02:34:51;9.00;66.40
69677;DHT22;56914;51.058;9.326;2022-12-07T02:36:00;9.10;66.40
69677;DHT22;56914;51.058;9.326;2022-12-07T02:37:15;9.10;66.40
69677;DHT22;56914;51.058;9.326;2022-12-07T02:38:26;9.10;66.40
69677;DHT22;56914;51.058;9.326;2022-12-07T02:39:39;9.10;66.30
69677;DHT22;56914;51.058;9.326;2022-12-07T02:40:48;9.10;66.30
69677;DHT22;56914;51.058;9.326;2022-12-07T02:41:58;9.20;66.30
69677;DHT22;56914;51.058;9.326;2022-12-07T02:43:07;9.20;66.80
69677;DHT22;56914;51.058;9.326;2022-12-07T02:44:16;9.20;66.20
69677;DHT22;56914;51.058;9.326;2022-12-07T02:45:23;9.20;66.00
69677;DHT22;56914;51.058;9.326;2022-12-07T02:46:32;9.30;65.90
69677;DHT22;56914;51.058;9.326;2022-12-07T02:47:37;9.30;65.80
69677;DHT22;56914;51.058;9.326;2022-12-07T02:48:42;9.30;65.80
69677;DHT22;56914;51.058;9.326;2022-12-07T02:49:46;9.30;65.80
69677;DHT22;56914;51.058;9.326;2022-12-07T02:50:51;9.30;65.70
69677;DHT22;56914;51.058;9.326;2022-12-07T02:51:53;9.30;65.70
69677;DHT22;56914;51.058;9.326;2022-12-07T02:52:56;9.30;65.60
69677;DHT22;56914;51.058;9.326;2022-12-07T02:54:00;9.40;65.60
69677;DHT22;56914;51.058;9.326;2022-12-07T02:55:04;9.40;66.30
69677;DHT22;56914;51.058;9.326;2022-12-07T02:56:17;9.40;65.70
69677;DHT22;56914;51.058;9.326;2022-12-07T02:57:40;9.40;65.60
69677;DHT22;56914;51.058;9.326;2022-12-07T02:58:54;9.40;65.50
69677;DHT22;56914;51.058;9.326;2022-12-07T03:00:06;9.40;65.60
69677;DHT22;56914;51.058;9.326;2022-12-07T03:01:19;9.40;65.70
69677;DHT22;56914;51.058;9.326;2022-12-07T03:02:36;9.40;65.80
69677;DHT22;56914;51.058;9.326;2022-12-07T03:03:48;9.40;65.80
69677;DHT22;56914;51.058;9.326;2022-12-07T03:05:10;9.40;65.70
69677;DHT22;56914;51.058;9.326;2022-12-07T03:06:22;9.30;65.70
69677;DHT22;56914;51.058;9.326;2022-12-07T03:07:36;9.30;65.60
69677;DHT22;56914;51.058;9.326;2022-12-07T03:08:52;9.30;65.80
69677;DHT22;56914;51.058;9.326;2022-12-07T03:10:03;9.30;65.80
69677;DHT22;56914;51.058;9.326;2022-12-07T03:11:13;9.30;65.80
69677;DHT22;56914;51.058;9.326;2022-12-07T03:12:30;9.30;65.90
69677;DHT22;56914;51.058;9.326;2022-12-07T03:13:40;9.30;65.90
69677;DHT22;56914;51.058;9.326;2022-12-07T03:14:49;9.30;65.90
69677;DHT22;56914;51.058;9.326;2022-12-07T03:16:01;9.30;65.80
69677;DHT22;56914;51.058;9.326;2022-12-07T03:17:10;9.30;65.90
69677;DHT22;56914;51.058;9.326;2022-12-07T03:18:18;9.30;65.90
69677;DHT22;56914;51.058;9.326;2022-12-07T03:19:25;9.30;65.90
69677;DHT22;56914;51.058;9.326;2022-12-07T03:20:29;9.30;65.80
69677;DHT22;56914;51.058;9.326;2022-12-07T03:21:37;9.30;65.80
69677;DHT22;56914;51.058;9.326;2022-12-07T03:22:42;9.30;65.80
69677;DHT22;56914;51.058;9.326;2022-12-07T03:23:53;9.30;66.30
69677;DHT22;56914;51.058;9.326;2022-12-07T03:25:02;9.30;65.80
69677;DHT22;56914;51.058;9.326;2022-12-07T03:26:11;9.30;65.80
69677;DHT22;56914;51.058;9.326;2022-12-07T03:27:20;9.30;65.80
69677;DHT22;56914;51.058;9.326;2022-12-07T03:28:28;9.40;65.80
69677;DHT22;56914;51.058;9.326;2022-12-07T03:29:38;9.30;65.80
69677;DHT22;56914;51.058;9.326;2022-12-07T03:30:49;9.40;65.80
69677;DHT22;56914;51.058;9.326;2022-12-07T03:31:59;9.40;65.80
69677;DHT22;56914;51.058;9.326;2022-12-07T03:33:09;9.40;65.80
69677;DHT22;56914;51.058;9.326;2022-12-07T03:34:18;9.40;65.80
69677;DHT22;56914;51.058;9.326;2022-12-07T03:35:28;9.40;65.80
69677;DHT22;56914;51.058;9.326;2022-12-07T03:36:39;9.40;65.60
69677;DHT22;56914;51.058;9.326;2022-12-07T03:37:48;9.30;65.80
69677;DHT22;56914;51.058;9.326;2022-12-07T03:38:58;9.30;66.00
69677;DHT22;56914;51.058;9.326;2022-12-07T03:40:11;9.20;66.10
69677;DHT22;56914;51.058;9.326;2022-12-07T03:41:21;9.20;66.30
69677;DHT22;56914;51.058;9.326;2022-12-07T03:42:25;9.20;66.40
69677;DHT22;56914;51.058;9.326;2022-12-07T03:43:29;9.20;66.40
69677;DHT22;56914;51.058;9.326;2022-12-07T03:44:33;9.20;66.50
69677;DHT22;56914;51.058;9.326;2022-12-07T03:45:41;9.20;66.50
69677;DHT22;56914;51.058;9.326;2022-12-07T03:46:48;9.20;66.40
69677;DHT22;56914;51.058;9.326;2022-12-07T03:48:03;9.20;66.50
69677;DHT22;56914;51.058;9.326;2022-12-07T03:49:14;9.20;66.60
69677;DHT22;56914;51.058;9.326;2022-12-07T03:50:28;9.20;66.50
69677;DHT22;56914;51.058;9.326;2022-12-07T03:51:40;9.30;66.50
69677;DHT22;56914;51.058;9.326;2022-12-07T03:52:52;9.30;66.50
69677;DHT22;56914;51.058;9.326;2022-12-07T03:54:06;9.30;66.40
69677;DHT22;56914;51.058;9.326;2022-12-07T03:55:17;9.30;66.50
69677;DHT22;56914;51.058;9.326;2022-12-07T03:56:22;9.40;66.50
69677;DHT22;56914;51.058;9.326;2022-12-07T03:57:28;9.50;66.40
69677;DHT22;56914;51.058;9.326;2022-12-07T03:58:34;9.50;66.40
69677;DHT22;56914;51.058;9.326;2022-12-07T03:59:39;9.50;66.20
69677;DHT22;56914;51.058;9.326;2022-12-07T04:00:42;9.50;66.20
69677;DHT22;56914;51.058;9.326;2022-12-07T04:01:53;9.60;66.20
69677;DHT22;56914;51.058;9.326;2022-12-07T04:02:58;9.50;66.10
69677;DHT22;56914;51.058;9.326;2022-12-07T04:04:35;9.60;66.20
69677;DHT22;56914;51.058;9.326;2022-12-07T04:05:39;9.60;66.20
69677;DHT22;56914;51.058;9.326;2022-12-07T04:06:41;9.60;66.20
69677;DHT22;56914;51.058;9.326;2022-12-07T04:07:44;9.60;66.20
69677;DHT22;56914;51.058;9.326;2022-12-07T04:08:47;9.70;66.20
69677;DHT22;56914;51.058;9.326;2022-12-07T04:09:50;9.70;66.10
69677;DHT22;56914;51.058;9.326;2022-12-07T04:10:52;9.70;66.00
69677;DHT22;56914;51.058;9.326;2022-12-07T04:11:55;9.80;66.10
69677;DHT22;56914;51.058;9.326;2022-12-07T04:12:57;9.70;66.00
69677;DHT22;56914;51.058;9.326;2022-12-07T04:14:00;9.80;66.00
69677;DHT22;56914;51.058;9.326;2022-12-07T04:15:21;9.80;66.00
69677;DHT22;56914;51.058;9.326;2022-12-07T04:16:24;9.80;65.90
69677;DHT22;56914;51.058;9.326;2022-12-07T04:17:26;9.80;65.80
69677;DHT22;56914;51.058;9.326;2022-12-07T04:18:31;9.80;65.70
69677;DHT22;56914;51.058;9.326;2022-12-07T04:19:34;9.80;65.60
69677;DHT22;56914;51.058;9.326;2022-12-07T04:20:38;9.80;65.60
69677;DHT22;56914;51.058;9.326;2022-12-07T04:21:40;9.80;66.10
69677;DHT22;56914;51.058;9.326;2022-12-07T04:22:43;9.80;65.50
69677;DHT22;56914;51.058;9.326;2022-12-07T04:23:45;9.80;65.50
69677;DHT22;56914;51.058;9.326;2022-12-07T04:24:48;9.80;65.60
69677;DHT22;56914;51.058;9.326;2022-12-07T04:25:51;9.80;65.60
69677;DHT22;56914;51.058;9.326;2022-12-07T04:26:54;9.80;65.60
69677;DHT22;56914;51.058;9.326;2022-12-07T04:27:56;9.80;65.60
69677;DHT22;56914;51.058;9.326;2022-12-07T04:28:59;9.80;65.60
69677;DHT22;56914;51.058;9.326;2022-12-07T04:30:09;9.80;65.60
69677;DHT22;56914;51.058;9.326;2022-12-07T04:31:12;9.80;65.60
69677;DHT22;56914;51.058;9.326;2022-12-07T04:32:14;9.80;65.60
69677;DHT22;56914;51.058;9.326;2022-12-07T04:33:17;9.80;65.60
69677;DHT22;56914;51.058;9.326;2022-12-07T04:34:21;9.80;65.50
69677;DHT22;56914;51.058;9.326;2022-12-07T04:35:24;9.80;65.50
69677;DHT22;56914;51.058;9.326;2022-12-07T04:36:26;9.80;65.50
69677;DHT22;56914;51.058;9.326;2022-12-07T04:37:30;9.70;65.40
69677;DHT22;56914;51.058;9.326;2022-12-07T04:38:32;9.70;65.50
69677;DHT22;56914;51.058;9.326;2022-12-07T04:39:35;9.70;66.20
69677;DHT22;56914;51.058;9.326;2022-12-07T04:40:37;9.60;65.70
69677;DHT22;56914;51.058;9.326;2022-12-07T04:41:40;9.60;65.80
69677;DHT22;56914;51.058;9.326;2022-12-07T04:42:42;9.60;65.90
69677;DHT22;56914;51.058;9.326;2022-12-07T04:43:45;9.60;65.90
69677;DHT22;56914;51.058;9.326;2022-12-07T04:44:48;9.60;65.90
69677;DHT22;56914;51.058;9.326;2022-12-07T04:45:51;9.60;65.90
69677;DHT22;56914;51.058;9.326;2022-12-07T04:46:54;9.60;66.00
69677;DHT22;56914;51.058;9.326;2022-12-07T04:47:58;9.60;66.00
69677;DHT22;56914;51.058;9.326;2022-12-07T04:49:01;9.60;66.00
69677;DHT22;56914;51.058;9.326;2022-12-07T04:50:06;9.60;66.10
69677;DHT22;56914;51.058;9.326;2022-12-07T04:51:09;9.60;66.10
69677;DHT22;56914;51.058;9.326;2022-12-07T04:52:12;9.60;66.10
69677;DHT22;56914;51.058;9.326;2022-12-07T04:53:14;9.60;66.00
69677;DHT22;56914;51.058;9.326;2022-12-07T04:54:17;9.60;66.00
69677;DHT22;56914;51.058;9.326;2022-12-07T04:55:20;9.60;65.90
69677;DHT22;56914;51.058;9.326;2022-12-07T04:56:24;9.60;65.90
69677;DHT22;56914;51.058;9.326;2022-12-07T04:57:26;9.60;66.00
69677;DHT22;56914;51.058;9.326;2022-12-07T04:58:29;9.60;66.00
69677;DHT22;56914;51.058;9.326;2022-12-07T04:59:31;9.60;66.00
69677;DHT22;56914;51.058;9.326;2022-12-07T05:00:34;9.60;65.90
69677;DHT22;56914;51.058;9.326;2022-12-07T05:01:37;9.60;66.00
69677;DHT22;56914;51.058;9.326;2022-12-07T05:02:40;9.60;66.00
69677;DHT22;56914;51.058;9.326;2022-12-07T05:03:42;9.60;66.00
69677;DHT22;56914;51.058;9.326;2022-12-07T05:04:46;9.60;66.00
69677;DHT22;56914;51.058;9.326;2022-12-07T05:05:49;9.70;66.00
69677;DHT22;56914;51.058;9.326;2022-12-07T05:06:52;9.60;66.00
69677;DHT22;56914;51.058;9.326;2022-12-07T05:07:54;9.60;66.10
69677;DHT22;56914;51.058;9.326;2022-12-07T05:08:58;9.60;66.20
69677;DHT22;56914;51.058;9.326;2022-12-07T05:10:00;9.60;66.20
69677;DHT22;56914;51.058;9.326;2022-12-07T05:11:05;9.60;66.20
69677;DHT22;56914;51.058;9.326;2022-12-07T05:12:07;9.70;66.30
69677;DHT22;56914;51.058;9.326;2022-12-07T05:13:10;9.70;66.20
69677;DHT22;56914;51.058;9.326;2022-12-07T05:14:14;9.70;66.10
69677;DHT22;56914;51.058;9.326;2022-12-07T05:15:18;9.70;66.20
69677;DHT22;56914;51.058;9.326;2022-12-07T05:16:20;9.70;66.20
69677;DHT22;56914;51.058;9.326;2022-12-07T05:17:23;9.70;66.10
69677;DHT22;56914;51.058;9.326;2022-12-07T05:18:26;9.70;66.00
69677;DHT22;56914;51.058;9.326;2022-12-07T05:19:28;9.70;66.00
69677;DHT22;56914;51.058;9.326;2022-12-07T05:20:32;9.70;66.00
69677;DHT22;56914;51.058;9.326;2022-12-07T05:21:43;9.80;66.00
69677;DHT22;56914;51.058;9.326;2022-12-07T05:22:46;9.80;65.90
69677;DHT22;56914;51.058;9.326;2022-12-07T05:23:49;9.80;65.90
69677;DHT22;56914;51.058;9.326;2022-12-07T05:24:52;9.80;65.90
69677;DHT22;56914;51.058;9.326;2022-12-07T05:25:54;9.80;65.80
69677;DHT22;56914;51.058;9.326;2022-12-07T05:26:57;9.80;65.80
69677;DHT22;56914;51.058;9.326;2022-12-07T05:27:59;9.80;65.80
69677;DHT22;56914;51.058;9.326;2022-12-07T05:29:03;9.80;65.70
69677;DHT22;56914;51.058;9.326;2022-12-07T05:30:06;9.80;65.60
69677;DHT22;56914;51.058;9.326;2022-12-07T05:31:09;9.80;65.70
69677;DHT22;56914;51.058;9.326;2022-12-07T05:32:12;9.80;65.70
69677;DHT22;56914;51.058;9.326;2022-12-07T05:33:15;9.80;65.60
69677;DHT22;56914;51.058;9.326;2022-12-07T05:34:18;9.80;65.60
69677;DHT22;56914;51.058;9.326;2022-12-07T05:35:20;9.80;65.50
69677;DHT22;56914;51.058;9.326;2022-12-07T05:36:23;9.80;65.50
69677;DHT22;56914;51.058;9.326;2022-12-07T05:37:27;9.70;65.50
69677;DHT22;56914;51.058;9.326;2022-12-07T05:38:30;9.70;65.50
69677;DHT22;56914;51.058;9.326;2022-12-07T05:39:32;9.70;65.90
69677;DHT22;56914;51.058;9.326;2022-12-07T05:40:36;9.60;65.60
69677;DHT22;56914;51.058;9.326;2022-12-07T05:41:38;9.60;65.70
69677;DHT22;56914;51.058;9.326;2022-12-07T05:42:59;9.60;65.90
69677;DHT22;56914;51.058;9.326;2022-12-07T05:44:06;9.60;65.80
69677;DHT22;56914;51.058;9.326;2022-12-07T05:45:09;9.60;65.90
69677;DHT22;56914;51.058;9.326;2022-12-07T05:46:12;9.70;65.90
69677;DHT22;56914;51.058;9.326;2022-12-07T05:47:15;9.70;65.70
69677;DHT22;56914;51.058;9.326;2022-12-07T05:48:18;9.70;65.50
69677;DHT22;56914;51.058;9.326;2022-12-07T05:49:20;9.70;65.40
69677;DHT22;56914;51.058;9.326;2022-12-07T05:50:24;9.70;65.10
69677;DHT22;56914;51.058;9.326;2022-12-07T05:51:27;9.70;65.10
69677;DHT22;56914;51.058;9.326;2022-12-07T05:52:30;9.60;65.10
69677;DHT22;56914;51.058;9.326;2022-12-07T05:53:34;9.60;64.90
69677;DHT22;56914;51.058;9.326;2022-12-07T05:54:36;9.50;64.90
69677;DHT22;56914;51.058;9.326;2022-12-07T05:55:39;9.50;64.90
69677;DHT22;56914;51.058;9.326;2022-12-07T05:56:41;9.50;65.50
69677;DHT22;56914;51.058;9.326;2022-12-07T05:57:44;9.40;65.00
69677;DHT22;56914;51.058;9.326;2022-12-07T05:59:08;9.40;65.10
69677;DHT22;56914;51.058;9.326;2022-12-07T06:00:25;9.40;65.10
69677;DHT22;56914;51.058;9.326;2022-12-07T06:01:29;9.30;65.10
69677;DHT22;56914;51.058;9.326;2022-12-07T06:02:31;9.30;65.10
69677;DHT22;56914;51.058;9.326;2022-12-07T06:03:34;9.30;65.10
69677;DHT22;56914;51.058;9.326;2022-12-07T06:04:38;9.30;65.20
69677;DHT22;56914;51.058;9.326;2022-12-07T06:05:42;9.30;65.30
69677;DHT22;56914;51.058;9.326;2022-12-07T06:06:44;9.20;65.20
69677;DHT22;56914;51.058;9.326;2022-12-07T06:07:49;9.30;65.30
69677;DHT22;56914;51.058;9.326;2022-12-07T06:08:52;9.20;65.20
69677;DHT22;56914;51.058;9.326;2022-12-07T06:09:54;9.30;65.20
69677;DHT22;56914;51.058;9.326;2022-12-07T06:10:58;9.20;65.20
69677;DHT22;56914;51.058;9.326;2022-12-07T06:12:15;9.20;65.20
69677;DHT22;56914;51.058;9.326;2022-12-07T06:13:35;9.20;65.30
69677;DHT22;56914;51.058;9.326;2022-12-07T06:14:38;9.10;65.20
69677;DHT22;56914;51.058;9.326;2022-12-07T06:15:41;9.10;65.20
69677;DHT22;56914;51.058;9.326;2022-12-07T06:16:44;9.10;65.30
69677;DHT22;56914;51.058;9.326;2022-12-07T06:17:47;9.10;65.30
69677;DHT22;56914;51.058;9.326;2022-12-07T06:18:49;9.10;65.30
69677;DHT22;56914;51.058;9.326;2022-12-07T06:19:52;9.10;65.90
69677;DHT22;56914;51.058;9.326;2022-12-07T06:20:55;9.10;65.40
69677;DHT22;56914;51.058;9.326;2022-12-07T06:21:58;9.10;65.30
69677;DHT22;56914;51.058;9.326;2022-12-07T06:23:03;9.00;65.20
69677;DHT22;56914;51.058;9.326;2022-12-07T06:24:06;9.00;65.20
69677;DHT22;56914;51.058;9.326;2022-12-07T06:25:08;9.00;65.10
69677;DHT22;56914;51.058;9.326;2022-12-07T06:26:12;9.00;65.20
69677;DHT22;56914;51.058;9.326;2022-12-07T06:27:14;9.00;65.10
69677;DHT22;56914;51.058;9.326;2022-12-07T06:28:17;9.00;65.10
69677;DHT22;56914;51.058;9.326;2022-12-07T06:29:19;8.90;65.00
69677;DHT22;56914;51.058;9.326;2022-12-07T06:30:23;8.90;65.00
69677;DHT22;56914;51.058;9.326;2022-12-07T06:31:26;8.90;65.10
69677;DHT22;56914;51.058;9.326;2022-12-07T06:32:29;8.90;65.10
69677;DHT22;56914;51.058;9.326;2022-12-07T06:33:32;8.90;65.20
69677;DHT22;56914;51.058;9.326;2022-12-07T06:34:35;8.90;65.30
69677;DHT22;56914;51.058;9.326;2022-12-07T06:35:38;8.90;65.30
69677;DHT22;56914;51.058;9.326;2022-12-07T06:36:41;8.90;65.30
69677;DHT22;56914;51.058;9.326;2022-12-07T06:37:43;8.80;65.20
69677;DHT22;56914;51.058;9.326;2022-12-07T06:38:48;8.90;65.30
69677;DHT22;56914;51.058;9.326;2022-12-07T06:39:50;8.90;65.30
69677;DHT22;56914;51.058;9.326;2022-12-07T06:40:53;8.90;65.30
69677;DHT22;56914;51.058;9.326;2022-12-07T06:41:56;8.90;65.30
69677;DHT22;56914;51.058;9.326;2022-12-07T06:42:59;8.90;65.30
69677;DHT22;56914;51.058;9.326;2022-12-07T06:44:01;8.90;65.30
69677;DHT22;56914;51.058;9.326;2022-12-07T06:45:05;8.90;65.30
69677;DHT22;56914;51.058;9.326;2022-12-07T06:46:07;8.90;65.40
69677;DHT22;56914;51.058;9.326;2022-12-07T06:47:10;8.90;65.40
69677;DHT22;56914;51.058;9.326;2022-12-07T06:48:34;8.90;65.40
69677;DHT22;56914;51.058;9.326;2022-12-07T06:49:36;9.00;65.40
69677;DHT22;56914;51.058;9.326;2022-12-07T06:50:39;8.90;65.40
69677;DHT22;56914;51.058;9.326;2022-12-07T06:51:41;8.90;65.30
69677;DHT22;56914;51.058;9.326;2022-12-07T06:52:44;9.00;65.30
69677;DHT22;56914;51.058;9.326;2022-12-07T06:53:48;9.00;65.30
69677;DHT22;56914;51.058;9.326;2022-12-07T06:54:51;8.90;65.30
69677;DHT22;56914;51.058;9.326;2022-12-07T06:55:54;8.90;65.30
69677;DHT22;56914;51.058;9.326;2022-12-07T06:56:56;8.90;65.40
69677;DHT22;56914;51.058;9.326;2022-12-07T06:57:59;8.90;65.50
69677;DHT22;56914;51.058;9.326;2022-12-07T06:59:04;8.90;65.60
69677;DHT22;56914;51.058;9.326;2022-12-07T07:00:09;8.90;65.60
69677;DHT22;56914;51.058;9.326;2022-12-07T07:01:13;8.90;65.60